Latest Weather Observations for Toowoomba

IDQ60801

Issued at 10:02 am EST Wednesday 29 June 2016 (issued every 30 minutes, with the page automatically refreshed every 10 minutes)

About weather observations | Map of weather stations | Latest weather observations for QLD | Other Formats
Station Details ID: 041529 Name: TOOWOOMBA AIRPORT Lat: -27.54 Lon: 151.91 Height: 640.9 m
Data from the previous 72 hours. | See also: Recent months at Toowoomba
Date/Time
EST
Temp
°C
App
Temp
°C
Dew
Point
°C
Rel
Hum
%
Delta-T
°C
Wind Press
QNH
hPa
Press
MSL
hPa
Rain since
9am
mm
Dir  Spd
km/h
Gust
km/h
Spd
kts
Gust
kts
29/10:00am 13.0 9.5 3.4 52 4.4 E 11 22 6 12 1028.3 1027.8 0.0
29/09:30am 12.6 8.0 3.8 55 4.1 E 17 20 9 11 1028.2 1027.7 0.0
29/09:00am 11.4 8.2 5.3 66 2.9 ESE 11 17 6 9 1028.1 1027.6 0.0
29/08:30am 9.4 7.3 5.6 77 1.8 ESE 6 7 3 4 1027.9 1027.4 0.0
29/08:00am 6.7 5.6 5.0 89 0.8 CALM 0 6 0 3 1027.6 1027.0 0.0
29/07:30am 4.6 3.3 4.0 96 0.3 CALM 0 0 0 0 1027.4 1026.8 0.0
29/07:00am 1.4 -2.5 1.3 99 0.0 ESE 11 11 6 6 1026.9 1026.3 0.0
29/06:30am 1.6 -0.2 1.5 99 0.0 CALM 0 0 0 0 1026.7 1026.2 0.0
29/06:05am 2.7 0.4 2.6 99 0.0 SSW 4 7 2 4 1026.7 1026.2 0.0
29/06:00am 2.0 -0.1 1.9 99 0.0 WSW 2 7 1 4 1026.6 1026.1 0.0
29/05:30am 0.8 -1.1 0.7 99 0.0 CALM 0 0 0 0 1026.4 1025.8 0.0
29/05:00am 1.7 -1.7 1.6 99 0.0 NNW 9 11 5 6 1026.4 1025.8 0.0
29/04:30am 1.8 -1.1 1.7 99 0.0 NNW 6 6 3 3 1026.2 1025.6 0.0
29/04:13am 1.8 -1.6 1.7 99 0.0 NW 9 11 5 6 1026.3 1025.7 0.0
29/04:00am 1.7 -1.7 1.6 99 0.0 NW 9 13 5 7 1026.4 1025.8 0.0
29/03:30am 2.1 -0.9 2.0 99 0.0 NW 7 9 4 5 1026.3 1025.7 0.0
29/03:00am 2.2 -1.2 2.1 99 0.0 NW 9 11 5 6 1026.3 1025.7 0.0
29/02:30am 2.5 -0.4 2.4 99 0.0 NW 7 11 4 6 1026.2 1025.6 0.0
29/02:00am 3.1 1.2 3.0 99 0.0 WSW 2 7 1 4 1026.3 1025.7 0.0
29/01:30am 2.9 1.3 2.6 98 0.1 CALM 0 0 0 0 1026.6 1026.1 0.0
29/01:00am 3.1 -0.6 2.5 96 0.2 WNW 11 13 6 7 1027.0 1026.4 0.0
29/12:30am 3.4 0.1 2.5 94 0.4 NW 9 11 5 6 1027.0 1026.4 0.0
29/12:00am 4.6 0.4 3.6 93 0.4 WSW 15 19 8 10 1027.0 1026.4 0.0
 
Date/Time
EST
Temp
°C
App
Temp
°C
Dew
Point
°C
Rel
Hum
%
Delta-T
°C
Wind Press
QNH
hPa
Press
MSL
hPa
Rain since
9am
mm
Dir  Spd
km/h
Gust
km/h
Spd
kts
Gust
kts
28/11:30pm 4.8 0.5 3.5 91 0.6 WSW 15 19 8 10 1027.0 1026.4 0.0
28/11:00pm 4.8 1.3 3.3 90 0.6 W 11 15 6 8 1027.1 1026.5 0.0
28/10:30pm 5.8 0.6 3.6 86 1.0 SW 20 28 11 15 1027.0 1026.4 0.0
28/10:00pm 6.0 0.1 3.7 85 1.0 SW 24 32 13 17 1026.9 1026.3 0.0
28/09:30pm 6.4 0.1 3.9 84 1.1 SSW 26 35 14 19 1026.7 1026.2 0.0
28/09:00pm 6.4 -1.1 3.7 83 1.2 SW 32 39 17 21 1026.6 1026.1 0.0
28/08:30pm 6.8 -0.3 3.6 80 1.4 SW 30 39 16 21 1026.6 1026.1 0.0
28/08:00pm 6.9 0.6 3.5 79 1.5 SW 26 33 14 18 1026.7 1026.2 0.0
28/07:30pm 6.7 1.4 3.0 77 1.6 SW 20 32 11 17 1026.7 1026.2 0.0
28/07:00pm 7.1 1.0 2.8 74 1.9 SW 24 32 13 17 1026.3 1025.7 0.0
28/06:30pm 7.4 1.7 2.7 72 2.0 SW 22 28 12 15 1025.9 1025.3 0.0
28/06:00pm 7.7 2.5 2.4 69 2.3 SW 19 24 10 13 1025.4 1024.8 0.0
28/05:30pm 8.2 2.0 2.4 67 2.5 WSW 24 32 13 17 1024.7 1024.1 0.0
28/05:00pm 8.9 2.3 2.3 63 2.9 WSW 26 32 14 17 1024.3 1023.7 0.0
28/04:30pm 9.8 3.6 2.4 60 3.3 SW 24 32 13 17 1024.0 1023.4 0.0
28/04:00pm 10.2 4.0 2.3 58 3.5 WSW 24 32 13 17 1023.6 1022.9 0.0
28/03:30pm 10.8 4.7 2.6 57 3.7 SW 24 35 13 19 1023.3 1022.7 0.0
28/03:00pm 10.5 4.0 2.6 58 3.5 WSW 26 35 14 19 1023.1 1022.5 0.0
28/02:30pm 10.7 4.3 3.3 60 3.4 SW 26 33 14 18 1023.0 1022.4 0.0
28/02:00pm 10.1 3.6 2.9 61 3.2 SW 26 35 14 19 1022.9 1022.3 0.0
28/01:30pm 10.3 3.6 3.8 64 3.0 WSW 28 39 15 21 1022.7 1022.1 0.0
28/01:00pm 10.0 3.0 4.0 66 2.7 SW 30 43 16 23 1022.7 1022.1 0.0
28/12:30pm 9.4 2.3 3.4 66 2.7 SW 30 41 16 22 1022.8 1022.2 0.0
28/12:00pm 8.4 1.1 2.4 66 2.6 SW 30 39 16 21 1023.1 1022.5 0.0
28/11:30am 7.9 0.6 2.6 69 2.3 WSW 30 39 16 21 1023.6 1022.9 0.0
28/11:00am 7.1 0.6 2.4 72 2.0 SW 26 33 14 18 1024.2 1023.6 0.0
28/10:30am 6.3 -1.1 1.8 73 1.9 SW 30 43 16 23 1024.3 1023.7 0.0
28/10:18am 6.6 -0.7 2.5 75 1.8 SW 30 43 16 23 1024.4 1023.8 0.0
28/10:00am 5.0 -2.5 1.5 78 1.4 SW 30 41 16 22 1024.5 1023.9 0.0
28/09:30am 4.4 -3.4 1.6 82 1.2 SW 32 44 17 24 1024.1 1023.5 0.0
28/09:00am 3.8 -3.7 1.4 84 1.0 SW 30 41 16 22 1024.2 1023.6 0.8
28/08:30am 3.8 -4.2 1.5 85 0.9 SW 33 43 18 23 1023.3 1022.7 0.8
28/08:00am 3.3 -3.8 1.2 86 0.8 WSW 28 39 15 21 1023.3 1022.7 0.8
28/07:44am 3.3 -3.5 1.0 85 0.9 WSW 26 41 14 22 1023.0 1022.4 0.8
28/07:30am 3.3 -3.1 1.2 86 0.8 WSW 24 39 13 21 1022.9 1022.3 0.8
28/07:10am 3.0 -4.1 1.1 87 0.8 WSW 28 41 15 22 1022.6 1022.0 0.8
28/07:00am 3.2 -3.5 1.3 87 0.8 WSW 26 39 14 21 1022.7 1022.1 0.8
28/06:30am 3.1 -4.0 1.3 88 0.7 WSW 28 39 15 21 1022.4 1021.7 0.8
28/06:23am 3.1 -4.7 1.6 90 0.6 WSW 32 50 17 27 1022.2 1021.5 0.8
28/06:00am 3.1 -5.3 1.3 88 0.7 WSW 35 50 19 27 1021.9 1021.2 0.8
28/05:30am 3.0 -5.0 1.8 92 0.5 WSW 33 44 18 24 1021.4 1020.8 0.8
28/05:00am 3.1 -5.3 1.3 88 0.7 WSW 35 48 19 26 1021.2 1020.6 0.8
28/04:47am 3.0 -5.8 1.2 88 0.7 WSW 37 57 20 31 1021.2 1020.6 0.8
28/04:30am 3.0 -5.8 1.4 89 0.6 WSW 37 48 20 26 1020.9 1020.2 0.8
28/04:00am 3.3 -6.2 1.5 88 0.7 WSW 41 54 22 29 1021.0 1020.3 0.8
28/03:34am 3.4 -5.7 1.6 88 0.7 WSW 39 57 21 31 1020.8 1020.1 0.8
28/03:30am 3.3 -6.2 1.7 89 0.7 WSW 41 52 22 28 1020.8 1020.1 0.8
28/03:00am 3.4 -5.7 1.9 90 0.6 WSW 39 56 21 30 1020.7 1020.0 0.8
28/02:53am 3.3 -5.4 1.8 90 0.6 WSW 37 56 20 30 1020.6 1019.9 0.8
28/02:30am 3.3 -6.5 2.0 91 0.5 WSW 43 59 23 32 1020.4 1019.7 0.8
28/02:01am 3.4 -5.7 1.9 90 0.6 WSW 39 57 21 31 1020.4 1019.7 0.8
28/02:00am 3.4 -5.7 2.1 91 0.5 WSW 39 54 21 29 1020.5 1019.8 0.8
28/01:30am 3.5 -5.5 2.5 93 0.4 WSW 39 54 21 29 1020.6 1019.9 0.8
28/01:00am 3.6 -4.2 2.7 94 0.4 WSW 33 43 18 23 1020.7 1020.0 0.8
28/12:30am 3.6 -4.2 2.6 93 0.4 WSW 33 46 18 25 1020.8 1020.1 0.8
28/12:06am 3.6 -4.2 2.7 94 0.4 WSW 33 48 18 26 1020.9 1020.2 0.8
28/12:00am 3.6 -4.0 2.7 94 0.4 WSW 32 44 17 24 1020.9 1020.2 0.8
 
Date/Time
EST
Temp
°C
App
Temp
°C
Dew
Point
°C
Rel
Hum
%
Delta-T
°C
Wind Press
QNH
hPa
Press
MSL
hPa
Rain since
9am
mm
Dir  Spd
km/h
Gust
km/h
Spd
kts
Gust
kts
27/11:30pm 3.7 -3.9 2.8 94 0.4 WSW 32 43 17 23 1021.1 1020.5 0.8
27/11:26pm 3.8 -3.4 2.9 94 0.4 WSW 30 39 16 21 1021.1 1020.5 0.8
27/11:17pm 3.8 -3.4 3.1 95 0.3 WSW 30 43 16 23 1021.2 1020.6 0.8
27/11:05pm 3.9 -3.7 3.8 99 0.0 WSW 33 52 18 28 1021.2 1020.6 0.8
27/11:00pm 4.1 -3.3 4.0 99 0.0 WSW 32 46 17 25 1021.2 1020.6 0.6
27/10:58pm 4.2 -3.2 3.9 98 0.1 WSW 32 43 17 23 1021.2 1020.6 0.6
27/10:30pm 4.4 -3.0 3.8 96 0.3 WSW 32 43 17 23 1021.1 1020.5 0.6
27/10:09pm 4.4 -2.3 3.8 96 0.3 WSW 28 41 15 22 1021.1 1020.5 0.6
27/10:00pm 4.4 -2.3 3.8 96 0.3 WSW 28 37 15 20 1021.2 1020.6 0.6
27/09:57pm 4.4 -2.7 3.7 95 0.3 WSW 30 41 16 22 1021.1 1020.5 0.6
27/09:30pm 4.3 -3.7 3.6 95 0.3 WSW 35 46 19 25 1021.0 1020.3 0.6
27/09:00pm 4.7 -2.6 4.4 98 0.1 WSW 32 44 17 24 1020.8 1020.1 0.6
27/08:51pm 4.9 -2.0 4.8 99 0.0 WSW 30 39 16 21 1020.7 1020.0 0.6
27/08:32pm 5.4 -1.8 5.1 98 0.1 WSW 32 41 17 22 1020.6 1019.9 0.6
27/08:30pm 5.4 -1.8 5.1 98 0.1 WSW 32 41 17 22 1020.6 1019.9 0.6
27/08:29pm 5.4 -1.8 5.1 98 0.1 WSW 32 41 17 22 1020.6 1019.9 0.6
27/08:00pm 5.8 -0.7 4.6 92 0.5 WSW 28 37 15 20 1020.4 1019.7 0.6
27/07:53pm 5.7 -0.4 4.8 94 0.4 WSW 26 35 14 19 1020.3 1019.6 0.6
27/07:30pm 5.9 -0.1 5.2 95 0.3 WSW 26 37 14 20 1020.3 1019.6 0.6
27/07:00pm 6.1 0.8 5.2 94 0.4 W 22 32 12 17 1019.9 1019.3 0.6
27/06:54pm 6.1 0.5 5.2 94 0.4 WSW 24 35 13 19 1019.9 1019.3 0.6
27/06:30pm 6.2 0.6 5.5 95 0.3 WSW 24 33 13 18 1019.8 1019.2 0.6
27/06:04pm 6.0 0.5 5.9 99 0.0 WSW 24 32 13 17 1019.5 1018.8 0.6
27/06:00pm 6.1 0.6 6.0 99 0.0 WSW 24 33 13 18 1019.5 1018.8 0.6
27/05:30pm 6.2 1.1 6.1 99 0.0 WSW 22 32 12 17 1019.2 1018.5 0.6
27/05:00pm 6.5 1.1 6.2 98 0.1 WSW 24 35 13 19 1018.9 1018.2 0.6
27/04:31pm 6.9 1.1 6.3 96 0.3 W 26 33 14 18 1018.4 1017.8 0.6
27/04:30pm 6.9 1.5 6.3 96 0.3 W 24 33 13 18 1018.4 1017.8 0.6
27/04:21pm 7.0 1.6 6.3 95 0.3 W 24 33 13 18 1018.4 1017.8 0.6
27/04:00pm 6.9 1.2 6.6 98 0.1 W 26 37 14 20 1018.1 1017.4 0.6
27/03:59pm 7.0 1.0 6.9 99 0.0 WSW 28 37 15 20 1018.1 1017.4 0.6
27/03:43pm 7.1 1.8 6.8 98 0.1 W 24 33 13 18 1017.9 1017.2 0.6
27/03:30pm 7.4 1.8 7.0 97 0.2 W 26 35 14 19 1017.8 1017.1 0.6
27/03:29pm 7.3 1.6 6.7 96 0.3 W 26 35 14 19 1017.8 1017.1 0.6
27/03:08pm 7.1 1.0 6.8 98 0.1 WSW 28 41 15 22 1017.6 1016.9 0.6
27/03:00pm 7.4 1.0 6.8 96 0.3 W 30 39 16 21 1017.5 1016.8 0.6
27/02:30pm 7.7 2.9 7.3 97 0.2 W 22 32 12 17 1017.1 1016.4 0.6
27/02:00pm 7.9 3.2 7.8 99 0.0 WSW 22 33 12 18 1016.9 1016.1 0.6
27/01:30pm 8.6 3.2 8.2 97 0.2 W 26 33 14 18 1016.9 1016.1 0.6
27/01:00pm 8.4 3.5 8.3 99 0.0 W 24 35 13 19 1017.1 1016.4 0.6
27/12:30pm 8.0 2.6 7.9 99 0.0 W 26 37 14 20 1017.3 1016.6 0.6
27/12:00pm 8.2 3.2 8.1 99 0.0 W 24 32 13 17 1017.7 1017.0 0.6
27/11:30am 8.3 3.3 8.2 99 0.0 W 24 32 13 17 1017.8 1017.1 0.4
27/11:00am 8.7 4.6 8.6 99 0.1 W 20 32 11 17 1018.1 1017.4 0.2
27/10:30am 8.7 3.8 8.6 99 0.1 W 24 32 13 17 1018.2 1017.5 0.2
27/10:00am 8.5 4.0 8.4 99 0.0 W 22 32 12 17 1018.6 1017.9 0.2
27/09:53am 8.5 4.0 8.4 99 0.0 W 22 32 12 17 1018.4 1017.8 0.2
27/09:30am 8.4 3.5 8.3 99 0.0 WNW 24 35 13 19 1018.8 1018.1 0.2
27/09:23am 8.4 3.5 8.3 99 0.0 WNW 24 37 13 20 1018.8 1018.1 0.2
27/09:22am 8.5 3.2 8.4 99 0.0 WNW 26 37 14 20 1018.8 1018.1 0.2
27/09:00am 8.5 3.2 8.4 99 0.0 WNW 26 37 14 20 1018.6 1017.9 4.0
27/08:30am 8.4 4.2 8.3 99 0.0 WNW 20 35 11 19 1018.4 1017.8 3.2
27/08:29am 8.3 4.1 8.2 99 0.0 WNW 20 35 11 19 1018.4 1017.8 3.2
27/08:27am 8.3 4.1 8.2 99 0.0 WNW 20 32 11 17 1018.3 1017.6 3.0
27/08:00am 7.9 3.8 7.8 99 0.0 NW 19 24 10 13 1018.2 1017.5 2.8
27/07:30am 7.6 3.8 7.5 99 0.0 WNW 17 22 9 12 1018.2 1017.5 2.2
27/07:00am 7.6 4.2 7.5 99 0.0 WNW 15 20 8 11 1018.0 1017.3 1.8
27/06:30am 7.7 3.9 7.6 99 0.0 WNW 17 24 9 13 1017.9 1017.2 1.4
27/06:00am 8.4 4.7 7.8 96 0.3 WNW 17 26 9 14 1017.7 1017.0 1.0
27/05:52am 8.6 4.5 7.7 94 0.4 WNW 19 26 10 14 1017.7 1017.0 0.8
27/05:30am 9.1 5.2 8.5 96 0.3 WNW 19 24 10 13 1017.5 1016.8 0.8
27/05:00am 9.6 6.5 9.0 96 0.3 WNW 15 19 8 10 1017.1 1016.4 0.8
27/04:30am 9.7 7.0 8.8 94 0.5 NNW 13 15 7 8 1016.9 1016.1 0.6
27/04:00am 10.0 7.6 8.8 92 0.6 NNW 11 15 6 8 1017.0 1016.2 0.4
27/03:30am 10.1 7.7 8.7 91 0.7 NW 11 15 6 8 1017.2 1016.5 0.2
27/03:00am 10.7 7.5 8.5 86 1.1 N 15 22 8 12 1016.9 1016.1 0.0
27/02:30am 10.6 7.7 8.2 85 1.2 N 13 20 7 11 1016.4 1015.7 0.0
27/02:00am 9.0 5.9 5.4 78 1.7 ENE 11 13 6 7 1016.7 1016.0 0.0
27/01:30am 9.3 5.8 5.3 76 1.9 ENE 13 19 7 10 1016.6 1015.9 0.0
27/01:00am 9.1 5.0 4.5 73 2.1 ENE 15 19 8 10 1016.9 1016.1 0.0
27/12:30am 9.1 4.2 4.3 72 2.2 ENE 19 24 10 13 1016.6 1015.9 0.0
27/12:00am 9.1 5.4 4.3 72 2.2 ENE 13 15 7 8 1017.9 1017.2 0.0
 
Date/Time
EST
Temp
°C
App
Temp
°C
Dew
Point
°C
Rel
Hum
%
Delta-T
°C
Wind Press
QNH
hPa
Press
MSL
hPa
Rain since
9am
mm
Dir  Spd
km/h
Gust
km/h
Spd
kts
Gust
kts
26/11:30pm 9.7 6.0 4.5 70 2.4 ENE 13 19 7 10 1017.9 1017.2 0.0
26/11:00pm 9.5 5.4 4.3 70 2.4 ENE 15 17 8 9 1018.3 1017.6 0.0
26/10:30pm 9.4 5.7 4.2 70 2.4 ENE 13 19 7 10 1018.8 1018.1 0.0
26/10:00pm 9.4 4.5 4.2 70 2.4 ENE 19 22 10 12 1018.6 1017.9 0.0
26/09:30pm 9.2 4.7 4.2 71 2.3 ENE 17 20 9 11 1018.7 1018.0 0.0
26/09:00pm 9.4 5.3 4.6 72 2.2 ENE 15 19 8 10 1018.8 1018.1 0.0
26/08:30pm 9.1 4.6 4.3 72 2.2 ENE 17 20 9 11 1019.1 1018.4 0.0
26/08:00pm 9.2 4.8 4.6 73 2.1 ENE 17 20 9 11 1019.0 1018.3 0.0
26/07:30pm 9.0 4.9 4.4 73 2.1 ENE 15 17 8 9 1019.0 1018.3 0.0
26/07:00pm 9.1 5.4 4.5 73 2.1 ENE 13 15 7 8 1019.2 1018.5 0.0
26/06:30pm 9.3 6.3 4.3 71 2.3 ENE 9 11 5 6 1019.3 1018.6 0.0
26/06:00pm 9.4 6.1 4.6 72 2.2 E 11 15 6 8 1019.1 1018.4 0.0
26/05:30pm 9.5 5.8 4.3 70 2.4 E 13 15 7 8 1018.6 1017.9 0.0
26/05:00pm 9.6 5.5 4.2 69 2.5 ENE 15 17 8 9 1018.3 1017.6 0.0
26/04:30pm 10.3 6.6 4.2 66 2.8 ENE 13 17 7 9 1018.2 1017.5 0.0
26/04:00pm 11.1 7.7 3.9 61 3.3 ENE 11 13 6 7 1018.2 1017.5 0.0
26/03:30pm 11.5 8.4 3.5 58 3.7 ENE 9 11 5 6 1018.4 1017.8 0.0
26/03:00pm 11.5 8.0 3.5 58 3.7 ENE 11 15 6 8 1018.3 1017.6 0.0
26/02:30pm 12.2 8.4 3.7 56 3.9 ENE 13 17 7 9 1018.3 1017.6 0.0
26/02:00pm 12.6 9.1 3.6 54 4.2 ENE 11 17 6 9 1018.6 1017.9 0.0
26/01:30pm 11.7 8.1 2.7 54 4.1 ENE 11 17 6 9 1018.8 1018.1 0.0
26/01:00pm 11.2 7.6 2.8 56 3.8 ENE 11 17 6 9 1019.4 1018.7 0.0
26/12:30pm 11.9 7.1 2.4 52 4.3 N 17 22 9 12 1019.6 1018.9 0.0
26/12:00pm 11.9 7.3 1.5 49 4.6 N 15 22 8 12 1020.5 1019.8 0.0
26/11:30am 11.4 6.6 0.5 47 4.7 NNE 15 20 8 11 1021.1 1020.5 0.0
26/11:00am 10.7 6.7 0.4 49 4.4 NE 11 19 6 10 1021.9 1021.2 0.0
26/10:30am 10.2 5.7 0.0 49 4.3 ENE 13 17 7 9 1021.4 1020.8 0.0

Other Formats:

Comma delimited format used in spreadsheet applications
http://www.bom.gov.au/fwo/IDQ60801/IDQ60801.95551.axf

JavaScript Object Notation format (JSON) in row-major order
http://www.bom.gov.au/fwo/IDQ60801/IDQ60801.95551.json